createdAt,value
2023-02-21T00:01:12.876Z,92.73
2023-02-21T00:02:33.430Z,92.83
2023-02-21T00:03:53.482Z,92.20
2023-02-21T00:05:13.339Z,93.45
2023-02-21T00:06:33.169Z,92.67
2023-02-21T00:07:53.496Z,92.96
2023-02-21T00:09:13.871Z,93.08
2023-02-21T00:10:34.626Z,93.15
2023-02-21T00:11:59.155Z,93.62
2023-02-21T00:13:19.573Z,93.31
2023-02-21T00:14:39.479Z,93.89
2023-02-21T00:15:59.293Z,93.36
2023-02-21T00:17:18.935Z,94.05
2023-02-21T00:18:39.197Z,93.80
2023-02-21T00:19:59.502Z,94.01
2023-02-21T00:21:19.990Z,93.18
2023-02-21T00:22:39.846Z,93.73
2023-02-21T00:23:59.694Z,93.22
2023-02-21T00:25:19.667Z,93.54
2023-02-21T00:26:41.439Z,93.25
2023-02-21T00:28:01.244Z,92.99
2023-02-21T00:29:21.427Z,93.40
2023-02-21T00:30:41.457Z,93.32
2023-02-21T00:32:01.681Z,94.19
2023-02-21T00:33:21.601Z,93.27
2023-02-21T00:34:41.479Z,93.50
2023-02-21T00:36:01.312Z,93.80
2023-02-21T00:37:20.987Z,94.59
2023-02-21T00:38:40.723Z,95.53
2023-02-21T00:40:00.528Z,95.06
2023-02-21T00:41:20.269Z,94.63
2023-02-21T00:42:40.087Z,94.98
2023-02-21T00:43:59.847Z,94.73
2023-02-21T00:45:19.617Z,95.08
2023-02-21T00:46:40.879Z,100.00
2023-02-21T00:48:00.739Z,100.00
2023-02-21T00:49:22.086Z,100.00
2023-02-21T00:50:41.946Z,100.00
2023-02-21T00:52:01.719Z,100.00
2023-02-21T00:53:22.176Z,100.00
2023-02-21T00:54:42.077Z,100.00
2023-02-21T00:56:01.802Z,100.00
2023-02-21T00:57:22.330Z,100.00
2023-02-21T00:58:42.075Z,100.00
2023-02-21T01:00:01.813Z,100.00
2023-02-21T01:01:21.709Z,100.00
2023-02-21T01:02:41.454Z,100.00
2023-02-21T01:04:01.855Z,100.00
2023-02-21T01:05:22.217Z,100.00
2023-02-21T01:06:42.098Z,100.00
2023-02-21T01:08:02.451Z,100.00
2023-02-21T01:09:22.725Z,100.00
2023-02-21T01:10:42.525Z,100.00
2023-02-21T01:12:02.193Z,100.00
2023-02-21T01:13:22.933Z,100.00
2023-02-21T01:14:42.828Z,100.00
2023-02-21T01:16:03.280Z,100.00
2023-02-21T01:17:23.474Z,100.00
2023-02-21T01:18:44.000Z,100.00
2023-02-21T01:20:03.817Z,100.00
2023-02-21T01:21:24.108Z,100.00
2023-02-21T01:22:43.870Z,100.00
2023-02-21T01:24:03.834Z,100.00
2023-02-21T01:25:24.663Z,100.00
2023-02-21T01:26:44.414Z,100.00
2023-02-21T01:28:04.328Z,100.00
2023-02-21T01:29:24.788Z,100.00
2023-02-21T01:30:44.606Z,100.00
2023-02-21T01:32:04.766Z,100.00
2023-02-21T01:33:24.465Z,100.00
2023-02-21T01:34:44.285Z,100.00
2023-02-21T01:36:04.064Z,100.00
2023-02-21T01:37:23.892Z,100.00
2023-02-21T01:38:43.792Z,100.00
2023-02-21T01:40:03.653Z,100.00
2023-02-21T01:41:24.058Z,100.00
2023-02-21T01:42:46.987Z,100.00
2023-02-21T01:44:24.150Z,100.00
2023-02-21T01:46:14.409Z,100.00
2023-02-21T01:47:34.793Z,100.00
2023-02-21T01:48:55.621Z,100.00
2023-02-21T01:50:16.922Z,100.00
2023-02-21T01:51:41.851Z,100.00
2023-02-21T01:53:02.705Z,100.00
2023-02-21T01:54:24.694Z,100.00
2023-02-21T01:55:45.057Z,100.00
2023-02-21T01:57:05.722Z,100.00
2023-02-21T01:58:26.102Z,100.00
2023-02-21T01:59:47.060Z,100.00
2023-02-21T02:01:07.439Z,100.00
2023-02-21T02:02:38.018Z,100.00
2023-02-21T02:03:59.821Z,100.00
2023-02-21T02:05:21.132Z,100.00
2023-02-21T02:06:41.400Z,100.00
2023-02-21T02:08:01.654Z,100.00
2023-02-21T02:09:39.929Z,100.00
2023-02-21T02:11:01.317Z,100.00
2023-02-21T02:12:41.604Z,100.00
2023-02-21T02:13:46.057Z,100.00
2023-02-21T02:14:47.451Z,100.00
2023-02-21T02:15:54.967Z,100.00
2023-02-21T02:17:16.533Z,100.00
2023-02-21T02:18:33.273Z,100.00
2023-02-21T02:19:53.672Z,100.00
2023-02-21T02:21:14.124Z,100.00
2023-02-21T02:22:30.333Z,100.00
2023-02-21T02:23:43.604Z,100.00
2023-02-21T02:25:16.252Z,100.00
2023-02-21T02:26:55.835Z,100.00
2023-02-21T02:28:15.899Z,100.00
2023-02-21T02:29:37.661Z,100.00
2023-02-21T02:31:06.953Z,100.00
2023-02-21T02:32:41.699Z,100.00
2023-02-21T02:34:14.264Z,100.00
2023-02-21T02:35:24.655Z,100.00
2023-02-21T02:36:39.553Z,100.00
2023-02-21T02:38:04.957Z,100.00
2023-02-21T02:39:26.015Z,100.00
2023-02-21T02:40:36.396Z,100.00
2023-02-21T02:42:24.126Z,100.00
2023-02-21T02:43:28.437Z,100.00
2023-02-21T02:44:40.986Z,100.00
2023-02-21T02:45:45.147Z,100.00
2023-02-21T02:46:49.371Z,100.00
2023-02-21T02:47:57.245Z,100.00
2023-02-21T02:49:05.721Z,100.00
2023-02-21T02:50:09.418Z,100.00
2023-02-21T02:51:16.411Z,100.00
2023-02-21T02:52:18.400Z,100.00
2023-02-21T02:53:25.223Z,100.00
2023-02-21T02:54:26.615Z,100.00
2023-02-21T02:55:54.840Z,100.00
2023-02-21T02:56:56.349Z,100.00
2023-02-21T02:57:58.954Z,100.00
2023-02-21T02:59:07.897Z,100.00
2023-02-21T03:00:10.765Z,100.00
2023-02-21T03:01:26.818Z,100.00
2023-02-21T03:02:28.177Z,100.00
2023-02-21T03:03:38.480Z,100.00
2023-02-21T03:04:52.656Z,100.00
2023-02-21T03:06:00.795Z,100.00
2023-02-21T03:07:35.074Z,100.00
2023-02-21T03:08:40.547Z,100.00
2023-02-21T03:09:42.187Z,100.00
2023-02-21T03:10:58.412Z,100.00
2023-02-21T03:12:08.654Z,100.00
2023-02-21T03:13:21.583Z,100.00
2023-02-21T03:14:27.608Z,100.00
2023-02-21T03:15:36.142Z,100.00
2023-02-21T03:17:00.319Z,100.00
2023-02-21T03:18:14.037Z,100.00
2023-02-21T03:19:20.607Z,100.00
2023-02-21T03:20:23.074Z,100.00
2023-02-21T03:21:32.498Z,100.00
2023-02-21T03:22:34.833Z,100.00
2023-02-21T03:23:39.648Z,100.00
2023-02-21T03:24:44.489Z,100.00
2023-02-21T03:25:48.093Z,100.00
2023-02-21T03:26:53.757Z,100.00
2023-02-21T03:27:55.487Z,100.00
2023-02-21T03:28:56.997Z,100.00
2023-02-21T03:30:02.172Z,100.00
2023-02-21T03:31:08.129Z,100.00
2023-02-21T03:32:14.590Z,100.00
2023-02-21T03:33:16.030Z,100.00
2023-02-21T03:34:17.642Z,100.00
2023-02-21T03:35:20.542Z,100.00
2023-02-21T03:36:23.095Z,100.00
2023-02-21T03:37:39.696Z,100.00
2023-02-21T03:38:41.210Z,100.00
2023-02-21T03:39:42.628Z,100.00
2023-02-21T03:40:44.201Z,100.00
2023-02-21T03:41:45.700Z,100.00
2023-02-21T03:42:47.102Z,100.00
2023-02-21T03:43:48.599Z,100.00
2023-02-21T03:44:50.012Z,100.00
2023-02-21T03:45:51.535Z,100.00
2023-02-21T03:46:53.004Z,100.00
2023-02-21T03:47:54.443Z,100.00
2023-02-21T03:48:55.861Z,100.00
2023-02-21T03:49:57.284Z,100.00
2023-02-21T03:50:59.217Z,100.00
2023-02-21T03:52:00.691Z,100.00
2023-02-21T03:53:02.417Z,100.00
2023-02-21T03:54:03.921Z,100.00
2023-02-21T03:55:06.728Z,100.00
2023-02-21T03:56:08.233Z,100.00
2023-02-21T03:57:09.689Z,100.00
2023-02-21T03:58:11.145Z,100.00
2023-02-21T03:59:12.575Z,100.00
2023-02-21T04:00:14.919Z,100.00
2023-02-21T04:01:17.069Z,100.00
2023-02-21T04:02:19.212Z,100.00
2023-02-21T04:03:20.679Z,100.00
2023-02-21T04:04:22.230Z,100.00
2023-02-21T04:05:23.667Z,100.00
2023-02-21T04:06:25.443Z,100.00
2023-02-21T04:07:27.288Z,100.00
2023-02-21T04:08:28.669Z,100.00
2023-02-21T04:09:30.132Z,100.00
2023-02-21T04:10:35.744Z,100.00
2023-02-21T04:11:43.602Z,100.00
2023-02-21T04:12:45.012Z,100.00
2023-02-21T04:13:46.393Z,100.00
2023-02-21T04:14:47.852Z,100.00
2023-02-21T04:15:49.255Z,100.00
2023-02-21T04:16:51.552Z,100.00
2023-02-21T04:17:52.990Z,100.00
2023-02-21T04:18:54.450Z,100.00
2023-02-21T04:19:55.865Z,100.00
2023-02-21T04:20:57.259Z,100.00
2023-02-21T04:21:58.719Z,100.00
2023-02-21T04:23:03.499Z,100.00
2023-02-21T04:24:05.442Z,100.00
2023-02-21T04:25:07.612Z,100.00
2023-02-21T04:26:09.047Z,100.00
2023-02-21T04:27:10.549Z,100.00
2023-02-21T04:28:12.187Z,100.00
2023-02-21T04:29:13.745Z,100.00
2023-02-21T04:30:15.253Z,100.00
2023-02-21T04:31:18.298Z,100.00
2023-02-21T04:32:19.981Z,100.00
2023-02-21T04:33:21.475Z,100.00
2023-02-21T04:34:23.166Z,100.00
2023-02-21T04:35:24.628Z,100.00
2023-02-21T04:36:26.812Z,100.00
2023-02-21T04:37:28.268Z,100.00
2023-02-21T04:38:29.694Z,100.00
2023-02-21T04:39:31.114Z,100.00
2023-02-21T04:40:32.541Z,100.00
2023-02-21T04:41:34.293Z,100.00
2023-02-21T04:42:35.762Z,100.00
2023-02-21T04:43:37.205Z,100.00
2023-02-21T04:44:40.134Z,100.00
2023-02-21T04:45:41.647Z,100.00
2023-02-21T04:46:43.103Z,100.00
2023-02-21T04:47:44.542Z,100.00
2023-02-21T04:48:48.530Z,100.00
2023-02-21T04:49:52.374Z,100.00
2023-02-21T04:50:55.872Z,100.00
2023-02-21T04:51:58.676Z,100.00
2023-02-21T04:53:00.103Z,100.00
2023-02-21T04:54:01.460Z,100.00
2023-02-21T04:55:03.001Z,100.00
2023-02-21T04:56:04.845Z,100.00
2023-02-21T04:57:06.275Z,100.00
2023-02-21T04:58:07.755Z,100.00
2023-02-21T04:59:09.143Z,100.00
2023-02-21T05:00:11.469Z,100.00
2023-02-21T05:01:14.914Z,100.00
2023-02-21T05:02:16.598Z,100.00
2023-02-21T05:03:18.270Z,100.00
2023-02-21T05:04:19.685Z,100.00
2023-02-21T05:05:21.135Z,100.00
2023-02-21T05:06:24.884Z,100.00
2023-02-21T05:07:26.337Z,100.00
2023-02-21T05:08:28.816Z,100.00
2023-02-21T05:09:30.648Z,100.00
2023-02-21T05:10:44.874Z,100.00
2023-02-21T05:11:46.992Z,100.00
2023-02-21T05:12:48.485Z,100.00
2023-02-21T05:13:50.522Z,100.00
2023-02-21T05:14:51.851Z,100.00
2023-02-21T05:15:53.299Z,100.00
2023-02-21T05:16:54.845Z,100.00
2023-02-21T05:17:56.295Z,100.00
2023-02-21T05:18:58.175Z,100.00
2023-02-21T05:19:59.900Z,100.00
2023-02-21T05:21:03.208Z,100.00
2023-02-21T05:22:07.480Z,100.00
2023-02-21T05:23:13.938Z,100.00
2023-02-21T05:24:15.616Z,100.00
2023-02-21T05:25:19.277Z,100.00
2023-02-21T05:26:20.690Z,100.00
2023-02-21T05:27:22.755Z,100.00
2023-02-21T05:28:24.096Z,100.00
2023-02-21T05:29:26.252Z,100.00
2023-02-21T05:30:27.729Z,100.00
2023-02-21T05:31:29.847Z,100.00
2023-02-21T05:32:31.170Z,100.00
2023-02-21T05:33:32.817Z,100.00
2023-02-21T05:34:34.237Z,100.00
2023-02-21T05:35:35.652Z,100.00
2023-02-21T05:36:37.450Z,100.00
2023-02-21T05:37:38.974Z,100.00
2023-02-21T05:38:51.459Z,100.00
2023-02-21T05:39:52.873Z,100.00
2023-02-21T05:40:54.442Z,100.00
2023-02-21T05:41:55.846Z,100.00
2023-02-21T05:42:57.325Z,100.00
2023-02-21T05:43:58.772Z,100.00
2023-02-21T05:45:00.264Z,100.00
2023-02-21T05:46:01.709Z,100.00
2023-02-21T05:47:03.739Z,100.00
2023-02-21T05:48:05.467Z,100.00
2023-02-21T05:49:07.454Z,100.00
2023-02-21T05:50:08.818Z,100.00
2023-02-21T05:51:10.291Z,100.00
2023-02-21T05:52:13.308Z,100.00
2023-02-21T05:53:14.755Z,100.00
2023-02-21T05:54:19.499Z,100.00
2023-02-21T05:55:20.907Z,100.00
2023-02-21T05:56:22.486Z,100.00
2023-02-21T05:57:24.026Z,100.00
2023-02-21T05:58:25.486Z,100.00
2023-02-21T05:59:26.982Z,100.00
2023-02-21T06:00:30.031Z,100.00
2023-02-21T06:01:31.510Z,100.00
2023-02-21T06:02:32.945Z,100.00
2023-02-21T06:03:34.748Z,100.00
2023-02-21T06:04:36.191Z,100.00
2023-02-21T06:05:37.636Z,100.00
2023-02-21T06:06:39.135Z,100.00
2023-02-21T06:07:40.534Z,100.00
2023-02-21T06:08:44.919Z,100.00
2023-02-21T06:09:46.404Z,100.00
2023-02-21T06:10:48.664Z,100.00
2023-02-21T06:11:50.128Z,100.00
2023-02-21T06:12:51.813Z,100.00
2023-02-21T06:13:54.487Z,100.00
2023-02-21T06:14:55.972Z,100.00
2023-02-21T06:15:57.409Z,100.00
2023-02-21T06:17:00.510Z,100.00
2023-02-21T06:18:01.934Z,100.00
2023-02-21T06:19:04.895Z,100.00
2023-02-21T06:20:07.367Z,100.00
2023-02-21T06:21:08.771Z,100.00
2023-02-21T06:22:10.224Z,100.00
2023-02-21T06:23:11.631Z,100.00
2023-02-21T06:24:13.429Z,100.00
2023-02-21T06:25:15.694Z,100.00
2023-02-21T06:26:20.660Z,100.00
2023-02-21T06:27:22.107Z,100.00
2023-02-21T06:28:28.475Z,100.00
2023-02-21T06:29:30.069Z,100.00
2023-02-21T06:30:31.501Z,100.00
2023-02-21T06:31:33.354Z,100.00
2023-02-21T06:32:34.856Z,100.00
2023-02-21T06:33:36.463Z,100.00
2023-02-21T06:34:38.054Z,100.00
2023-02-21T06:35:39.501Z,100.00
2023-02-21T06:36:40.935Z,100.00
2023-02-21T06:37:42.753Z,100.00
2023-02-21T06:38:46.647Z,100.00
2023-02-21T06:39:48.146Z,100.00
2023-02-21T06:40:49.561Z,100.00
2023-02-21T06:41:51.303Z,100.00
2023-02-21T06:42:52.753Z,100.00
2023-02-21T06:43:55.687Z,100.00
2023-02-21T06:44:57.430Z,100.00
2023-02-21T06:45:58.882Z,100.00
2023-02-21T06:47:00.470Z,100.00
2023-02-21T06:48:02.118Z,100.00
2023-02-21T06:49:05.130Z,100.00
2023-02-21T06:50:09.203Z,100.00
2023-02-21T06:51:11.506Z,100.00
2023-02-21T06:52:13.270Z,100.00
2023-02-21T06:53:15.176Z,100.00
2023-02-21T06:54:17.123Z,100.00
2023-02-21T06:55:24.964Z,100.00
2023-02-21T06:56:27.200Z,100.00
2023-02-21T06:57:28.761Z,100.00
2023-02-21T06:58:30.167Z,100.00
2023-02-21T06:59:32.208Z,100.00
2023-02-21T07:00:33.655Z,100.00
2023-02-21T07:01:35.184Z,100.00
2023-02-21T07:02:38.684Z,100.00
2023-02-21T07:03:44.303Z,100.00
2023-02-21T07:04:47.043Z,100.00
2023-02-21T07:05:48.467Z,100.00
2023-02-21T07:06:50.439Z,100.00
2023-02-21T07:07:52.009Z,100.00
2023-02-21T07:08:53.455Z,100.00
2023-02-21T07:09:54.879Z,100.00
2023-02-21T07:10:56.854Z,100.00
2023-02-21T07:11:58.193Z,100.00
2023-02-21T07:12:59.745Z,100.00
2023-02-21T07:14:01.565Z,100.00
2023-02-21T07:15:03.726Z,100.00
2023-02-21T07:16:05.673Z,100.00
2023-02-21T07:17:07.124Z,100.00
2023-02-21T07:18:08.588Z,100.00
2023-02-21T07:19:15.686Z,100.00
2023-02-21T07:20:17.359Z,100.00
2023-02-21T07:21:20.674Z,100.00
2023-02-21T07:22:26.188Z,100.00
2023-02-21T07:23:27.874Z,100.00
2023-02-21T07:24:29.341Z,100.00
2023-02-21T07:25:31.345Z,100.00
2023-02-21T07:26:32.754Z,100.00
2023-02-21T07:27:34.175Z,100.00
2023-02-21T07:28:35.614Z,100.00
2023-02-21T07:29:37.007Z,100.00
2023-02-21T07:30:38.595Z,100.00
2023-02-21T07:31:40.146Z,100.00
2023-02-21T07:32:41.657Z,100.00
2023-02-21T07:33:43.168Z,100.00
2023-02-21T07:34:44.932Z,100.00
2023-02-21T07:35:46.419Z,100.00
2023-02-21T07:36:47.855Z,100.00
2023-02-21T07:37:49.318Z,100.00
2023-02-21T07:38:50.801Z,100.00
2023-02-21T07:39:52.248Z,100.00
2023-02-21T07:40:58.243Z,100.00
2023-02-21T07:41:59.708Z,100.00
2023-02-21T07:43:02.282Z,100.00
2023-02-21T07:44:03.784Z,100.00
2023-02-21T07:45:05.437Z,100.00
2023-02-21T07:46:11.757Z,100.00
2023-02-21T07:47:13.976Z,100.00
2023-02-21T07:48:15.524Z,100.00
2023-02-21T07:49:17.082Z,100.00
2023-02-21T07:50:18.778Z,100.00
2023-02-21T07:51:20.264Z,100.00
2023-02-21T07:52:23.012Z,100.00
2023-02-21T07:53:24.422Z,100.00
2023-02-21T07:54:25.832Z,100.00
2023-02-21T07:55:27.228Z,100.00
2023-02-21T07:56:28.816Z,100.00
2023-02-21T07:57:30.365Z,100.00
2023-02-21T07:58:32.466Z,100.00
2023-02-21T07:59:33.859Z,100.00
2023-02-21T08:00:35.985Z,100.00
2023-02-21T08:01:38.280Z,100.00
2023-02-21T08:02:40.261Z,100.00
2023-02-21T08:03:41.781Z,100.00
2023-02-21T08:04:43.271Z,100.00
2023-02-21T08:05:46.046Z,100.00
2023-02-21T08:06:49.245Z,100.00
2023-02-21T08:07:50.719Z,100.00
2023-02-21T08:08:52.139Z,100.00
2023-02-21T08:09:53.535Z,100.00
2023-02-21T08:10:54.969Z,100.00
2023-02-21T08:11:56.473Z,100.00
2023-02-21T08:12:57.888Z,100.00
2023-02-21T08:13:59.380Z,100.00
2023-02-21T08:15:00.804Z,100.00
2023-02-21T08:16:02.244Z,100.00
2023-02-21T08:17:03.698Z,100.00
2023-02-21T08:18:05.298Z,100.00
2023-02-21T08:19:07.968Z,100.00
2023-02-21T08:20:09.581Z,100.00
2023-02-21T08:21:11.215Z,100.00
2023-02-21T08:22:12.675Z,100.00
2023-02-21T08:23:14.129Z,100.00
2023-02-21T08:24:16.283Z,100.00
2023-02-21T08:25:17.963Z,100.00
2023-02-21T08:26:19.441Z,100.00
2023-02-21T08:27:20.836Z,100.00
2023-02-21T08:28:22.280Z,100.00
2023-02-21T08:29:23.706Z,100.00
2023-02-21T08:30:25.360Z,100.00
2023-02-21T08:31:27.038Z,100.00
2023-02-21T08:32:28.636Z,100.00
2023-02-21T08:33:31.573Z,100.00
2023-02-21T08:34:33.344Z,100.00
2023-02-21T08:35:34.866Z,100.00
2023-02-21T08:36:41.757Z,100.00
2023-02-21T08:37:47.809Z,100.00
2023-02-21T08:38:49.247Z,100.00
2023-02-21T08:39:52.361Z,100.00
2023-02-21T08:40:55.921Z,100.00
2023-02-21T08:41:58.655Z,100.00
2023-02-21T08:43:00.916Z,100.00
2023-02-21T08:44:02.432Z,100.00
2023-02-21T08:45:04.089Z,100.00
2023-02-21T08:46:05.598Z,100.00
2023-02-21T08:47:07.018Z,100.00
2023-02-21T08:48:08.606Z,100.00
2023-02-21T08:49:10.728Z,100.00
2023-02-21T08:50:12.942Z,100.00
2023-02-21T08:51:14.513Z,100.00
2023-02-21T08:52:18.486Z,100.00
2023-02-21T08:53:20.202Z,100.00
2023-02-21T08:54:21.629Z,100.00
2023-02-21T08:55:23.254Z,100.00
2023-02-21T08:56:26.927Z,100.00
2023-02-21T08:57:28.399Z,100.00
2023-02-21T08:58:29.862Z,100.00
2023-02-21T08:59:33.558Z,100.00
2023-02-21T09:00:35.152Z,100.00
2023-02-21T09:01:36.838Z,100.00
2023-02-21T09:02:41.683Z,100.00
2023-02-21T09:03:43.271Z,100.00
2023-02-21T09:04:45.388Z,100.00
2023-02-21T09:05:46.916Z,100.00
2023-02-21T09:06:51.169Z,100.00
2023-02-21T09:07:59.104Z,100.00
2023-02-21T09:09:00.615Z,100.00
2023-02-21T09:10:02.292Z,100.00
2023-02-21T09:11:03.796Z,100.00
2023-02-21T09:12:08.363Z,100.00
2023-02-21T09:13:09.935Z,100.00
2023-02-21T09:14:11.350Z,100.00
2023-02-21T09:15:15.418Z,100.00
2023-02-21T09:16:16.847Z,100.00
2023-02-21T09:17:18.335Z,100.00
2023-02-21T09:18:19.778Z,100.00
2023-02-21T09:19:21.880Z,100.00
2023-02-21T09:20:25.926Z,100.00
2023-02-21T09:21:28.476Z,100.00
2023-02-21T09:22:31.447Z,100.00
2023-02-21T09:23:33.029Z,100.00
2023-02-21T09:24:34.601Z,100.00
2023-02-21T09:25:36.075Z,100.00
2023-02-21T09:26:37.548Z,100.00
2023-02-21T09:27:40.228Z,100.00
2023-02-21T09:28:43.707Z,100.00
2023-02-21T09:29:46.937Z,100.00
2023-02-21T09:30:49.288Z,100.00
2023-02-21T09:31:51.000Z,100.00
2023-02-21T09:32:52.583Z,100.00
2023-02-21T09:33:54.063Z,100.00
2023-02-21T09:34:55.512Z,100.00
2023-02-21T09:35:56.918Z,100.00
2023-02-21T09:36:59.626Z,100.00
2023-02-21T09:38:02.014Z,100.00
2023-02-21T09:39:06.600Z,100.00
2023-02-21T09:40:40.545Z,100.00
2023-02-21T09:41:43.386Z,100.00
2023-02-21T09:42:45.464Z,100.00
2023-02-21T09:43:54.070Z,100.00
2023-02-21T09:44:55.613Z,100.00
2023-02-21T09:46:00.750Z,100.00
2023-02-21T09:47:07.531Z,100.00
2023-02-21T09:48:16.759Z,100.00
2023-02-21T09:49:28.585Z,100.00
2023-02-21T09:50:39.815Z,100.00
2023-02-21T09:51:43.813Z,100.00
2023-02-21T09:52:45.849Z,100.00
2023-02-21T09:53:48.898Z,100.00
2023-02-21T09:54:57.058Z,100.00
2023-02-21T09:56:12.892Z,100.00
2023-02-21T09:57:15.763Z,100.00
2023-02-21T09:58:20.061Z,100.00
2023-02-21T09:59:21.513Z,100.00
2023-02-21T10:00:29.175Z,100.00
2023-02-21T10:02:07.535Z,100.00
2023-02-21T10:03:45.565Z,100.00
2023-02-21T10:04:49.708Z,100.00
2023-02-21T10:06:05.492Z,100.00
2023-02-21T10:07:26.702Z,100.00
2023-02-21T10:08:43.259Z,100.00
2023-02-21T10:10:12.421Z,100.00
2023-02-21T10:11:39.438Z,100.00
2023-02-21T10:12:51.713Z,100.00
2023-02-21T10:14:13.103Z,100.00
2023-02-21T10:15:41.092Z,100.00
2023-02-21T10:16:54.897Z,100.00
2023-02-21T10:18:07.720Z,100.00
2023-02-21T10:19:18.583Z,100.00
2023-02-21T10:20:32.720Z,100.00
2023-02-21T10:21:43.052Z,100.00
2023-02-21T10:22:48.129Z,100.00
2023-02-21T10:23:51.991Z,100.00
2023-02-21T10:24:54.022Z,100.00
2023-02-21T10:25:59.038Z,100.00
2023-02-21T10:27:07.259Z,100.00
2023-02-21T10:28:18.173Z,100.00
2023-02-21T10:29:34.851Z,100.00
2023-02-21T10:30:38.171Z,100.00
2023-02-21T10:31:42.137Z,100.00
2023-02-21T10:32:43.668Z,100.00
2023-02-21T10:33:45.252Z,100.00
2023-02-21T10:34:48.398Z,100.00
2023-02-21T10:35:49.888Z,100.00
2023-02-21T10:36:51.915Z,100.00
2023-02-21T10:37:59.584Z,100.00
2023-02-21T10:39:18.389Z,100.00
2023-02-21T10:40:41.871Z,100.00
2023-02-21T10:41:43.425Z,100.00
2023-02-21T10:42:54.348Z,100.00
2023-02-21T10:44:03.310Z,100.00
2023-02-21T10:45:07.188Z,100.00
2023-02-21T10:46:42.717Z,100.00
2023-02-21T10:47:59.075Z,100.00
2023-02-21T10:49:28.684Z,100.00
2023-02-21T10:50:48.815Z,100.00
2023-02-21T10:52:13.416Z,100.00
2023-02-21T10:53:35.729Z,100.00
2023-02-21T10:54:37.601Z,100.00
2023-02-21T10:55:39.003Z,100.00
2023-02-21T10:56:41.813Z,100.00
2023-02-21T10:57:45.270Z,100.00
2023-02-21T10:59:06.154Z,100.00
2023-02-21T11:00:11.482Z,100.00
2023-02-21T11:01:15.430Z,100.00
2023-02-21T11:02:44.643Z,100.00
2023-02-21T11:03:51.472Z,100.00
2023-02-21T11:04:55.001Z,100.00
2023-02-21T11:05:58.103Z,100.00
2023-02-21T11:07:08.881Z,100.00
2023-02-21T11:08:11.711Z,100.00
2023-02-21T11:09:39.298Z,100.00
2023-02-21T11:10:44.197Z,100.00
2023-02-21T11:11:45.602Z,100.00
2023-02-21T11:13:02.410Z,100.00
2023-02-21T11:14:21.126Z,100.00
2023-02-21T11:15:22.959Z,100.00
2023-02-21T11:16:24.626Z,100.00
2023-02-21T11:17:32.371Z,100.00
2023-02-21T11:18:33.785Z,100.00
2023-02-21T11:19:53.893Z,100.00
2023-02-21T11:20:55.389Z,100.00
2023-02-21T11:21:57.528Z,100.00
2023-02-21T11:22:59.065Z,100.00
2023-02-21T11:24:04.138Z,100.00
2023-02-21T11:25:20.729Z,100.00
2023-02-21T11:26:22.180Z,100.00
2023-02-21T11:27:24.303Z,100.00
2023-02-21T11:28:26.458Z,100.00
2023-02-21T11:29:27.924Z,100.00
2023-02-21T11:30:32.144Z,100.00
2023-02-21T11:31:34.239Z,100.00
2023-02-21T11:32:39.666Z,100.00
2023-02-21T11:33:49.346Z,100.00
2023-02-21T11:34:51.152Z,100.00
2023-02-21T11:36:06.200Z,100.00
2023-02-21T11:37:07.675Z,100.00
2023-02-21T11:38:35.784Z,100.00
2023-02-21T11:39:37.244Z,100.00
2023-02-21T11:40:50.292Z,100.00
2023-02-21T11:41:57.347Z,100.00
2023-02-21T11:43:20.310Z,100.00
2023-02-21T11:44:35.470Z,100.00
2023-02-21T11:45:46.666Z,100.00
2023-02-21T11:46:50.656Z,100.00
2023-02-21T11:48:05.512Z,100.00
2023-02-21T11:49:28.682Z,100.00
2023-02-21T11:50:39.493Z,100.00
2023-02-21T11:51:51.194Z,100.00
2023-02-21T11:53:14.516Z,100.00
2023-02-21T11:54:16.174Z,100.00
2023-02-21T11:55:26.158Z,100.00
2023-02-21T11:56:44.978Z,100.00
2023-02-21T11:58:00.738Z,100.00
2023-02-21T11:59:23.653Z,100.00
2023-02-21T12:00:45.287Z,100.00
2023-02-21T12:02:23.356Z,100.00
2023-02-21T12:04:00.800Z,100.00
2023-02-21T12:05:30.256Z,100.00
2023-02-21T12:06:40.405Z,100.00
2023-02-21T12:07:47.851Z,100.00
2023-02-21T12:09:01.587Z,100.00
2023-02-21T12:10:35.343Z,100.00
2023-02-21T12:11:49.142Z,100.00
2023-02-21T12:13:24.207Z,100.00
2023-02-21T12:14:34.628Z,100.00
2023-02-21T12:15:42.167Z,100.00
2023-02-21T12:16:58.713Z,100.00
2023-02-21T12:18:21.457Z,100.00
2023-02-21T12:19:35.119Z,100.00
2023-02-21T12:21:16.330Z,100.00
2023-02-21T12:22:36.410Z,100.00
2023-02-21T12:23:53.267Z,100.00
2023-02-21T12:25:13.266Z,100.00
2023-02-21T12:26:29.927Z,100.00
2023-02-21T12:27:43.895Z,100.00
2023-02-21T12:28:58.451Z,100.00
2023-02-21T12:30:26.946Z,100.00
2023-02-21T12:31:31.332Z,100.00
2023-02-21T12:32:58.474Z,100.00
2023-02-21T12:34:27.322Z,100.00
2023-02-21T12:35:50.003Z,100.00
2023-02-21T12:37:16.564Z,100.00
2023-02-21T12:38:30.554Z,100.00
2023-02-21T12:39:32.347Z,100.00
2023-02-21T12:40:46.365Z,100.00
2023-02-21T12:42:08.022Z,100.00
2023-02-21T12:43:09.379Z,100.00
2023-02-21T12:44:18.580Z,100.00
2023-02-21T12:45:37.324Z,100.00
2023-02-21T12:46:40.844Z,100.00
2023-02-21T12:47:55.713Z,100.00
2023-02-21T12:49:04.735Z,100.00
2023-02-21T12:50:12.192Z,100.00
2023-02-21T12:51:18.135Z,100.00
2023-02-21T12:52:44.684Z,100.00
2023-02-21T12:54:01.706Z,100.00
2023-02-21T12:55:24.901Z,100.00
2023-02-21T12:56:38.211Z,100.00
2023-02-21T12:57:49.993Z,100.00
2023-02-21T12:59:15.406Z,100.00
2023-02-21T13:00:22.903Z,100.00
2023-02-21T13:01:37.912Z,100.00
2023-02-21T13:02:42.375Z,100.00
2023-02-21T13:04:24.499Z,100.00
2023-02-21T13:05:30.752Z,100.00
2023-02-21T13:06:37.046Z,100.00
2023-02-21T13:07:41.692Z,100.00
2023-02-21T13:09:04.803Z,100.00
2023-02-21T13:10:20.202Z,100.00
2023-02-21T13:11:43.427Z,100.00
2023-02-21T13:13:09.848Z,100.00
2023-02-21T13:14:38.815Z,100.00
2023-02-21T13:15:42.422Z,100.00
2023-02-21T13:16:44.100Z,100.00
2023-02-21T13:17:54.915Z,100.00
2023-02-21T13:19:04.662Z,100.00
2023-02-21T13:20:20.184Z,100.00
2023-02-21T13:21:40.209Z,100.00
2023-02-21T13:23:38.105Z,100.00
2023-02-21T13:25:15.955Z,100.00
2023-02-21T13:26:55.106Z,100.00
2023-02-21T13:28:19.147Z,100.00
2023-02-21T13:29:33.675Z,100.00
2023-02-21T13:30:38.593Z,100.00
2023-02-21T13:31:43.158Z,100.00
2023-02-21T13:32:57.549Z,100.00
2023-02-21T13:34:01.819Z,100.00
2023-02-21T13:35:07.604Z,100.00
2023-02-21T13:36:28.881Z,100.00
2023-02-21T13:37:34.486Z,100.00
2023-02-21T13:38:37.252Z,100.00
2023-02-21T13:39:38.775Z,100.00
2023-02-21T13:40:51.016Z,100.00
2023-02-21T13:41:56.357Z,100.00
2023-02-21T13:43:05.260Z,100.00
2023-02-21T13:44:31.587Z,100.00
2023-02-21T13:45:33.541Z,100.00
2023-02-21T13:46:34.934Z,100.00
2023-02-21T13:48:05.431Z,100.00
2023-02-21T13:49:39.738Z,100.00
2023-02-21T13:50:46.867Z,100.00
2023-02-21T13:51:49.861Z,100.00
2023-02-21T13:53:01.929Z,100.00
2023-02-21T13:54:11.536Z,100.00
2023-02-21T13:55:15.603Z,100.00
2023-02-21T13:56:18.266Z,100.00
2023-02-21T13:57:33.398Z,100.00
2023-02-21T13:58:40.353Z,100.00
2023-02-21T13:59:41.802Z,100.00
2023-02-21T14:00:43.265Z,100.00
2023-02-21T14:01:44.788Z,100.00
2023-02-21T14:03:09.461Z,100.00
2023-02-21T14:04:48.443Z,100.00
2023-02-21T14:05:52.817Z,100.00
2023-02-21T14:06:57.440Z,100.00
2023-02-21T14:08:00.753Z,100.00
2023-02-21T14:09:18.687Z,100.00
2023-02-21T14:10:30.432Z,100.00
2023-02-21T14:11:38.011Z,100.00
2023-02-21T14:12:43.941Z,100.00
2023-02-21T14:13:57.569Z,100.00
2023-02-21T14:15:07.731Z,100.00
2023-02-21T14:16:24.318Z,100.00
2023-02-21T14:17:28.969Z,100.00
2023-02-21T14:18:49.052Z,100.00
2023-02-21T14:19:52.467Z,100.00
2023-02-21T14:20:55.783Z,100.00